createdAt,value
2023-02-22T00:00:53.682Z,16.90
2023-02-22T00:03:56.810Z,19.67
2023-02-22T00:07:02.020Z,18.38
2023-02-22T00:10:09.048Z,19.27
2023-02-22T00:13:14.719Z,17.50
2023-02-22T00:16:19.960Z,15.05
2023-02-22T00:19:23.187Z,15.02
2023-02-22T00:22:27.600Z,22.35
2023-02-22T00:25:31.446Z,14.20
2023-02-22T00:28:34.549Z,16.80
2023-02-22T00:31:39.365Z,16.67
2023-02-22T00:34:43.622Z,14.98
2023-02-22T00:37:50.395Z,15.02
2023-02-22T00:40:53.629Z,17.00
2023-02-22T00:43:56.791Z,16.80
2023-02-22T00:47:00.054Z,14.00
2023-02-22T00:50:03.225Z,16.77
2023-02-22T00:53:09.196Z,16.30
2023-02-22T00:56:12.610Z,13.50
2023-02-22T00:59:16.160Z,17.38
2023-02-22T01:02:19.699Z,14.70
2023-02-22T01:05:26.399Z,14.18
2023-02-22T01:08:32.568Z,12.65
2023-02-22T01:11:35.701Z,18.92
2023-02-22T01:14:40.146Z,12.32
2023-02-22T01:17:44.028Z,15.10
2023-02-22T01:20:48.008Z,12.43
2023-02-22T01:23:54.958Z,16.25
2023-02-22T01:26:58.151Z,14.68
2023-02-22T01:30:01.518Z,19.00
2023-02-22T01:33:06.861Z,12.50
2023-02-22T01:36:11.375Z,13.98
2023-02-22T01:39:16.196Z,16.30
2023-02-22T01:42:21.367Z,11.70
2023-02-22T01:45:54.133Z,12.57
2023-02-22T01:49:01.738Z,16.17
2023-02-22T01:52:08.768Z,16.98
2023-02-22T01:55:13.352Z,16.02
2023-02-22T01:58:19.589Z,19.33
2023-02-22T02:01:25.005Z,11.10
2023-02-22T02:04:29.006Z,11.40
2023-02-22T02:07:32.177Z,9.05
2023-02-22T02:10:36.882Z,17.30
2023-02-22T02:13:44.642Z,15.52
2023-02-22T02:16:50.533Z,11.90
2023-02-22T02:20:01.704Z,10.85
2023-02-22T02:23:16.265Z,14.75
2023-02-22T02:26:57.207Z,11.90
2023-02-22T02:30:38.145Z,10.60
2023-02-22T02:33:46.963Z,10.65
2023-02-22T02:37:00.041Z,8.48
2023-02-22T02:40:12.967Z,9.43
2023-02-22T02:43:21.900Z,12.02
2023-02-22T02:46:28.972Z,12.07
2023-02-22T02:49:38.721Z,9.10
2023-02-22T02:52:43.270Z,10.98
2023-02-22T02:55:46.556Z,8.23
2023-02-22T02:58:52.829Z,9.75
2023-02-22T03:02:12.803Z,13.07
2023-02-22T03:05:42.297Z,14.57
2023-02-22T03:08:54.708Z,9.38
2023-02-22T03:12:08.696Z,11.00
2023-02-22T03:15:23.536Z,9.48
2023-02-22T03:18:30.018Z,9.27
2023-02-22T03:21:43.590Z,12.57
2023-02-22T03:24:53.114Z,11.20
2023-02-22T03:28:03.973Z,9.15
2023-02-22T03:31:11.395Z,9.25
2023-02-22T03:34:23.171Z,9.65
2023-02-22T03:37:34.031Z,12.95
2023-02-22T03:40:43.328Z,10.00
2023-02-22T03:43:50.704Z,11.75
2023-02-22T03:46:56.910Z,14.17
2023-02-22T03:50:06.902Z,9.68
2023-02-22T03:53:12.749Z,12.15
2023-02-22T03:56:24.299Z,8.77
2023-02-22T03:59:29.243Z,11.05
2023-02-22T04:02:32.396Z,11.63
2023-02-22T04:05:35.698Z,12.73
2023-02-22T04:08:40.316Z,11.27
2023-02-22T04:11:44.235Z,11.68
2023-02-22T04:14:48.146Z,9.40
2023-02-22T04:17:52.206Z,11.07
2023-02-22T04:20:55.704Z,10.45
2023-02-22T04:24:08.903Z,12.85
2023-02-22T04:27:12.225Z,12.43
2023-02-22T04:30:18.170Z,11.13
2023-02-22T04:34:32.286Z,11.82
2023-02-22T04:37:35.726Z,13.73
2023-02-22T04:40:41.962Z,9.07
2023-02-22T04:43:46.823Z,9.93
2023-02-22T04:46:54.467Z,12.35
2023-02-22T04:50:00.315Z,9.45
2023-02-22T04:53:04.292Z,7.40
2023-02-22T04:56:07.850Z,7.90
2023-02-22T04:59:15.270Z,8.63
2023-02-22T05:02:21.494Z,8.70
2023-02-22T05:05:26.082Z,8.23
2023-02-22T05:08:29.564Z,12.43
2023-02-22T05:11:32.735Z,10.90
2023-02-22T05:14:35.925Z,9.55
2023-02-22T05:17:38.987Z,9.70
2023-02-22T05:20:46.566Z,10.90
2023-02-22T05:23:51.585Z,12.63
2023-02-22T05:26:54.797Z,10.00
2023-02-22T05:29:57.906Z,10.80
2023-02-22T05:33:04.167Z,12.85
2023-02-22T05:36:09.717Z,12.30
2023-02-22T05:39:13.190Z,15.07
2023-02-22T05:42:16.359Z,11.98
2023-02-22T05:45:21.297Z,15.65
2023-02-22T05:48:24.760Z,12.10
2023-02-22T05:51:29.241Z,13.75
2023-02-22T05:54:32.387Z,12.38
2023-02-22T05:57:35.705Z,11.85
2023-02-22T06:00:38.856Z,9.68
2023-02-22T06:03:41.976Z,8.48
2023-02-22T06:06:46.461Z,11.40
2023-02-22T06:09:49.639Z,12.98
2023-02-22T06:12:53.877Z,11.75
2023-02-22T06:15:57.066Z,13.18
2023-02-22T06:19:00.624Z,12.10
2023-02-22T06:22:05.287Z,13.23
2023-02-22T06:25:09.700Z,10.68
2023-02-22T06:28:12.810Z,10.52
2023-02-22T06:31:16.837Z,9.65
2023-02-22T06:34:21.788Z,11.95
2023-02-22T06:37:26.348Z,10.23
2023-02-22T06:40:29.755Z,11.25
2023-02-22T06:43:32.947Z,12.50
2023-02-22T06:46:36.118Z,13.70
2023-02-22T06:49:39.253Z,12.75
2023-02-22T06:52:44.864Z,14.05
2023-02-22T06:55:48.118Z,13.95
2023-02-22T06:58:51.299Z,18.92
2023-02-22T07:01:54.677Z,13.05
2023-02-22T07:04:57.819Z,16.17
2023-02-22T07:08:07.411Z,16.92
2023-02-22T07:11:10.604Z,12.93
2023-02-22T07:14:14.661Z,16.02
2023-02-22T07:17:17.795Z,16.35
2023-02-22T07:20:22.753Z,16.45
2023-02-22T07:23:27.950Z,15.85
2023-02-22T07:26:31.149Z,20.05
2023-02-22T07:29:35.972Z,12.45
2023-02-22T07:32:39.217Z,24.83
2023-02-22T07:35:47.067Z,23.70
2023-02-22T07:38:51.542Z,13.55
2023-02-22T07:41:54.735Z,14.73
2023-02-22T07:44:59.429Z,11.40
2023-02-22T07:48:04.710Z,15.88
2023-02-22T07:51:09.771Z,16.10
2023-02-22T07:54:14.247Z,10.98
2023-02-22T07:57:17.721Z,15.70
2023-02-22T08:00:26.219Z,12.45
2023-02-22T08:03:34.228Z,15.43
2023-02-22T08:06:37.476Z,11.95
2023-02-22T08:09:41.976Z,16.35
2023-02-22T08:12:45.401Z,16.30
2023-02-22T08:15:52.970Z,17.33
2023-02-22T08:18:56.128Z,14.02
2023-02-22T08:21:59.379Z,12.68
2023-02-22T08:25:04.045Z,16.00
2023-02-22T08:28:09.748Z,18.10
2023-02-22T08:31:12.892Z,17.38
2023-02-22T08:34:16.014Z,18.13
2023-02-22T08:37:19.664Z,15.48
2023-02-22T08:40:27.630Z,13.75
2023-02-22T08:43:30.727Z,13.90
2023-02-22T08:46:33.942Z,17.00
2023-02-22T08:49:37.121Z,13.48
2023-02-22T08:52:40.228Z,12.77
2023-02-22T08:55:47.280Z,19.88
2023-02-22T08:58:50.708Z,14.02
2023-02-22T09:01:53.942Z,15.30
2023-02-22T09:04:57.166Z,15.23
2023-02-22T09:08:01.359Z,15.52
2023-02-22T09:11:06.159Z,15.13
2023-02-22T09:14:09.365Z,13.57
2023-02-22T09:17:12.496Z,16.52
2023-02-22T09:20:18.725Z,13.60
2023-02-22T09:23:22.490Z,23.83
2023-02-22T09:26:27.861Z,32.03
2023-02-22T09:29:31.618Z,20.88
2023-02-22T09:32:34.925Z,18.67
2023-02-22T09:35:42.104Z,13.27
2023-02-22T09:38:46.445Z,13.23
2023-02-22T09:41:56.515Z,15.40
2023-02-22T09:45:12.736Z,11.73
2023-02-22T09:48:22.146Z,8.95
2023-02-22T09:51:29.563Z,12.82
2023-02-22T09:54:38.902Z,10.73
2023-02-22T09:57:45.013Z,17.13
2023-02-22T10:00:53.812Z,11.23
2023-02-22T10:04:05.134Z,16.73
2023-02-22T10:07:19.392Z,17.13
2023-02-22T10:10:25.799Z,9.75
2023-02-22T10:13:42.125Z,12.20
2023-02-22T10:16:55.402Z,11.07
2023-02-22T10:20:13.407Z,12.32
2023-02-22T10:23:26.046Z,9.65
2023-02-22T10:26:33.680Z,14.35
2023-02-22T10:29:42.438Z,8.30
2023-02-22T10:34:39.006Z,12.35
2023-02-22T10:37:42.190Z,8.98
2023-02-22T10:40:49.120Z,16.42
2023-02-22T10:43:52.340Z,7.90
2023-02-22T10:46:55.581Z,7.93
2023-02-22T10:50:02.055Z,11.57
2023-02-22T10:53:05.361Z,9.10
2023-02-22T10:56:13.922Z,7.28
2023-02-22T10:59:29.217Z,9.23
2023-02-22T11:02:35.059Z,12.13
2023-02-22T11:05:41.390Z,9.23
2023-02-22T11:08:46.419Z,13.32
2023-02-22T11:11:51.425Z,8.80
2023-02-22T11:14:54.668Z,8.70
2023-02-22T11:18:01.803Z,8.07
2023-02-22T11:21:10.149Z,10.70
2023-02-22T11:27:31.559Z,8.73
2023-02-22T11:30:36.621Z,11.00
2023-02-22T11:36:53.580Z,8.05
2023-02-22T11:40:07.561Z,13.15
2023-02-22T11:43:17.136Z,5.32
2023-02-22T11:46:22.357Z,6.35
2023-02-22T11:49:35.036Z,9.82
2023-02-22T11:52:46.771Z,6.28
2023-02-22T11:55:59.582Z,9.48
2023-02-22T11:59:13.701Z,7.18
2023-02-22T12:02:32.277Z,5.97
2023-02-22T12:06:00.424Z,8.65
2023-02-22T12:09:16.056Z,9.10
2023-02-22T12:12:30.202Z,9.93
2023-02-22T12:15:40.908Z,7.75
2023-02-22T12:18:56.257Z,5.88
2023-02-22T12:22:04.379Z,5.20
2023-02-22T12:25:20.240Z,5.65
2023-02-22T12:28:26.866Z,4.90
2023-02-22T12:31:34.273Z,8.27
2023-02-22T12:34:42.112Z,6.85
2023-02-22T12:37:54.786Z,4.13
2023-02-22T12:41:07.458Z,4.57
2023-02-22T12:44:17.303Z,4.72
2023-02-22T12:47:25.483Z,5.57
2023-02-22T12:50:34.354Z,4.65
2023-02-22T12:53:40.957Z,5.28
2023-02-22T12:56:54.124Z,4.30
2023-02-22T13:00:00.394Z,4.25
2023-02-22T13:03:18.632Z,4.15
2023-02-22T13:06:33.431Z,2.63
2023-02-22T13:10:06.584Z,3.45
2023-02-22T13:13:19.478Z,4.85
2023-02-22T13:16:39.335Z,8.98
2023-02-22T13:19:50.078Z,2.35
2023-02-22T13:22:59.901Z,2.47
2023-02-22T13:26:13.682Z,3.22
2023-02-22T13:29:34.653Z,2.33
2023-02-22T13:32:52.343Z,3.00
2023-02-22T13:36:21.785Z,4.95
2023-02-22T13:39:54.476Z,2.08
2023-02-22T13:43:17.948Z,3.80
2023-02-22T13:46:45.879Z,4.32
2023-02-22T13:50:16.160Z,3.20
2023-02-22T13:53:24.504Z,1.92
2023-02-22T13:56:30.337Z,1.70
2023-02-22T13:59:36.380Z,3.28
2023-02-22T14:03:00.952Z,2.60
2023-02-22T14:06:06.248Z,1.33
2023-02-22T14:09:10.204Z,4.97
2023-02-22T14:12:48.233Z,1.85
2023-02-22T14:16:21.178Z,2.08
2023-02-22T14:19:26.087Z,1.65
2023-02-22T14:22:30.621Z,3.30
2023-02-22T14:25:37.446Z,2.58
2023-02-22T14:28:51.299Z,2.15
2023-02-22T14:32:06.500Z,1.40
2023-02-22T14:35:26.563Z,1.58
2023-02-22T14:38:31.758Z,2.25
2023-02-22T14:41:37.323Z,4.55
2023-02-22T14:44:49.747Z,3.13
2023-02-22T14:48:01.188Z,3.80
2023-02-22T14:51:21.131Z,1.77
2023-02-22T14:54:30.043Z,1.98
2023-02-22T15:00:45.817Z,3.67
2023-02-22T15:03:56.031Z,2.63
2023-02-22T15:07:22.355Z,2.13
2023-02-22T15:10:29.967Z,1.65
2023-02-22T15:13:34.155Z,1.25
2023-02-22T15:16:39.018Z,1.13
2023-02-22T15:19:43.251Z,1.00
2023-02-22T15:22:50.223Z,1.02
2023-02-22T15:25:54.067Z,1.35
2023-02-22T15:28:58.580Z,1.60
2023-02-22T15:32:02.029Z,1.30
2023-02-22T15:35:16.765Z,1.45
2023-02-22T15:38:28.363Z,1.13
2023-02-22T15:41:33.662Z,1.17
2023-02-22T15:44:39.237Z,3.33
2023-02-22T15:47:42.385Z,5.75
2023-02-22T15:51:10.580Z,3.20
2023-02-22T15:54:26.512Z,8.63
2023-02-22T15:57:30.516Z,2.30
2023-02-22T16:00:38.038Z,7.28
2023-02-22T16:03:46.403Z,14.02
2023-02-22T16:06:50.721Z,2.25
2023-02-22T16:09:55.487Z,4.75
2023-02-22T16:13:07.573Z,4.45
2023-02-22T16:16:23.921Z,2.85
2023-02-22T16:19:36.678Z,5.78
2023-02-22T16:22:46.472Z,6.68
2023-02-22T16:26:03.004Z,3.25
2023-02-22T16:29:09.197Z,5.47
2023-02-22T16:34:31.973Z,5.53
2023-02-22T16:37:35.084Z,4.20
2023-02-22T16:40:44.516Z,7.63
2023-02-22T16:43:51.119Z,5.97
2023-02-22T16:46:55.377Z,9.27
2023-02-22T16:49:59.876Z,5.35
2023-02-22T16:53:03.128Z,8.05
2023-02-22T16:56:12.549Z,3.25
2023-02-22T16:59:17.194Z,6.95
2023-02-22T17:02:21.410Z,10.60
2023-02-22T17:05:26.261Z,6.68
2023-02-22T17:08:29.422Z,6.78
2023-02-22T17:11:32.693Z,9.15
2023-02-22T17:14:36.826Z,5.75
2023-02-22T17:17:39.954Z,6.35
2023-02-22T17:20:45.620Z,5.53
2023-02-22T17:23:49.044Z,5.15
2023-02-22T17:26:54.336Z,5.88
2023-02-22T17:29:57.475Z,7.20
2023-02-22T17:33:03.649Z,8.68
2023-02-22T17:36:09.356Z,4.72
2023-02-22T17:39:13.462Z,7.85
2023-02-22T17:42:16.574Z,12.75
2023-02-22T17:45:19.827Z,6.68
2023-02-22T17:48:24.302Z,8.32
2023-02-22T17:51:28.921Z,5.88
2023-02-22T17:54:32.634Z,5.10
2023-02-22T17:57:36.148Z,5.63
2023-02-22T18:00:39.436Z,4.68
2023-02-22T18:03:42.578Z,4.15
2023-02-22T18:06:47.405Z,4.22
2023-02-22T18:09:50.687Z,7.78
2023-02-22T18:12:55.074Z,10.25
2023-02-22T18:15:59.785Z,5.38
2023-02-22T18:19:03.611Z,4.82
2023-02-22T18:22:08.440Z,6.88
2023-02-22T18:25:13.661Z,4.72
2023-02-22T18:28:18.299Z,6.22
2023-02-22T18:31:23.489Z,8.00
2023-02-22T18:34:28.081Z,5.95
2023-02-22T18:37:32.557Z,5.82
2023-02-22T18:40:35.990Z,9.23
2023-02-22T18:43:39.277Z,7.13
2023-02-22T18:46:43.429Z,8.15
2023-02-22T18:49:47.066Z,9.00
2023-02-22T18:52:51.588Z,9.18
2023-02-22T18:55:54.780Z,8.77
2023-02-22T18:58:59.775Z,9.13
2023-02-22T19:02:02.980Z,6.97
2023-02-22T19:05:07.034Z,8.75
2023-02-22T19:08:11.589Z,8.55
2023-02-22T19:11:17.936Z,7.00
2023-02-22T19:14:21.500Z,8.30
2023-02-22T19:17:24.827Z,13.35
2023-02-22T19:20:32.844Z,10.18
2023-02-22T19:26:50.322Z,18.95
2023-02-22T19:29:53.409Z,12.80
2023-02-22T19:32:56.637Z,14.18
2023-02-22T19:36:00.649Z,14.45
2023-02-22T19:39:05.067Z,15.98
2023-02-22T19:42:09.667Z,12.52
2023-02-22T19:45:12.808Z,10.50
2023-02-22T19:48:16.005Z,12.23
2023-02-22T19:51:20.933Z,11.07
2023-02-22T19:54:25.635Z,12.32
2023-02-22T19:57:29.829Z,13.10
2023-02-22T20:00:35.496Z,12.20
2023-02-22T20:03:39.265Z,11.77
2023-02-22T20:06:44.006Z,17.05
2023-02-22T20:09:49.676Z,11.57
2023-02-22T20:12:53.490Z,16.08
2023-02-22T20:15:56.599Z,13.85
2023-02-22T20:19:00.519Z,13.57
2023-02-22T20:22:03.700Z,10.30
2023-02-22T20:25:08.714Z,14.02
2023-02-22T20:28:13.078Z,15.93
2023-02-22T20:31:16.928Z,16.85
2023-02-22T20:34:20.217Z,23.45
2023-02-22T20:37:23.597Z,15.40
2023-02-22T20:40:28.133Z,16.10
2023-02-22T20:43:31.340Z,16.25
2023-02-22T20:46:36.578Z,21.40
2023-02-22T20:49:39.840Z,15.98
2023-02-22T20:52:42.954Z,18.88
2023-02-22T20:55:51.008Z,20.33
2023-02-22T20:58:56.219Z,18.25
2023-02-22T21:02:00.282Z,12.23
2023-02-22T21:05:03.424Z,16.63
2023-02-22T21:08:06.781Z,14.75
2023-02-22T21:11:13.136Z,16.23
2023-02-22T21:14:18.762Z,12.32
2023-02-22T21:17:28.630Z,15.75
2023-02-22T21:20:32.275Z,15.13
2023-02-22T21:23:35.568Z,12.30
2023-02-22T21:26:40.714Z,17.65
2023-02-22T21:29:43.929Z,17.67
2023-02-22T21:32:53.780Z,17.52
2023-02-22T21:35:57.002Z,15.27
2023-02-22T21:39:08.718Z,16.15
2023-02-22T21:42:13.777Z,15.02
2023-02-22T21:45:18.359Z,17.35
2023-02-22T21:48:21.481Z,12.05
2023-02-22T21:51:26.562Z,18.42
2023-02-22T21:54:29.705Z,14.80
2023-02-22T21:57:34.242Z,16.00
2023-02-22T22:00:42.438Z,12.95
2023-02-22T22:03:46.044Z,13.32
2023-02-22T22:06:51.128Z,12.40
2023-02-22T22:09:56.562Z,14.73
2023-02-22T22:13:01.410Z,13.45
2023-02-22T22:16:08.007Z,16.42
2023-02-22T22:19:13.035Z,13.38
2023-02-22T22:22:17.315Z,13.48
2023-02-22T22:25:20.926Z,16.85
2023-02-22T22:28:26.919Z,13.13
2023-02-22T22:34:33.984Z,11.82
2023-02-22T22:37:37.366Z,13.43
2023-02-22T22:40:40.496Z,10.98
2023-02-22T22:43:46.091Z,12.52
2023-02-22T22:46:49.983Z,15.77
2023-02-22T22:50:01.267Z,14.95
2023-02-22T22:53:04.455Z,13.90
2023-02-22T22:56:14.105Z,15.05
2023-02-22T22:59:17.834Z,14.55
2023-02-22T23:02:21.087Z,13.13
2023-02-22T23:05:27.898Z,15.27
2023-02-22T23:08:42.867Z,13.13
2023-02-22T23:11:47.587Z,13.77
2023-02-22T23:14:52.001Z,15.18
2023-02-22T23:17:56.280Z,16.05
2023-02-22T23:21:05.386Z,12.52
2023-02-22T23:24:08.724Z,18.10
2023-02-22T23:27:12.621Z,18.95
2023-02-22T23:30:18.537Z,13.50
2023-02-22T23:33:21.799Z,12.63
2023-02-22T23:36:26.851Z,10.85
2023-02-22T23:39:30.068Z,11.68
2023-02-22T23:42:33.244Z,13.02
2023-02-22T23:45:38.541Z,10.85
2023-02-22T23:48:46.544Z,14.50
2023-02-22T23:51:51.266Z,10.75
2023-02-22T23:54:54.470Z,12.77
2023-02-22T23:57:59.250Z,11.57
